sensor_id;sensor_type;location;lat;lon;timestamp;temperature;humidity
19281;DHT22;9774;52.034;5.342;2023-09-19T00:00:22;19.60;63.90
19281;DHT22;9774;52.034;5.342;2023-09-19T00:02:53;19.60;64.10
19281;DHT22;9774;52.034;5.342;2023-09-19T00:05:20;19.60;64.30
19281;DHT22;9774;52.034;5.342;2023-09-19T00:07:50;19.50;64.30
19281;DHT22;9774;52.034;5.342;2023-09-19T00:10:20;19.50;64.40
19281;DHT22;9774;52.034;5.342;2023-09-19T00:12:50;19.50;64.40
19281;DHT22;9774;52.034;5.342;2023-09-19T00:15:19;19.50;64.40
19281;DHT22;9774;52.034;5.342;2023-09-19T00:17:46;19.50;64.70
19281;DHT22;9774;52.034;5.342;2023-09-19T00:20:14;19.50;64.70
19281;DHT22;9774;52.034;5.342;2023-09-19T00:22:43;19.40;64.70
19281;DHT22;9774;52.034;5.342;2023-09-19T00:25:11;19.40;64.90
19281;DHT22;9774;52.034;5.342;2023-09-19T00:27:41;19.40;65.00
19281;DHT22;9774;52.034;5.342;2023-09-19T00:30:09;19.40;65.10
19281;DHT22;9774;52.034;5.342;2023-09-19T00:32:42;19.40;65.20
19281;DHT22;9774;52.034;5.342;2023-09-19T00:35:10;19.40;65.10
19281;DHT22;9774;52.034;5.342;2023-09-19T00:37:37;19.40;65.10
19281;DHT22;9774;52.034;5.342;2023-09-19T00:40:06;19.40;65.20
19281;DHT22;9774;52.034;5.342;2023-09-19T00:42:37;19.40;65.20
19281;DHT22;9774;52.034;5.342;2023-09-19T00:45:07;19.40;65.30
19281;DHT22;9774;52.034;5.342;2023-09-19T00:47:37;19.40;65.30
19281;DHT22;9774;52.034;5.342;2023-09-19T00:50:08;19.40;65.30
19281;DHT22;9774;52.034;5.342;2023-09-19T00:52:37;19.40;65.40
19281;DHT22;9774;52.034;5.342;2023-09-19T00:55:06;19.40;65.30
19281;DHT22;9774;52.034;5.342;2023-09-19T00:57:34;19.40;65.30
19281;DHT22;9774;52.034;5.342;2023-09-19T01:00:04;19.40;65.50
19281;DHT22;9774;52.034;5.342;2023-09-19T01:02:34;19.40;65.50
19281;DHT22;9774;52.034;5.342;2023-09-19T01:05:02;19.40;65.50
19281;DHT22;9774;52.034;5.342;2023-09-19T01:07:32;19.40;65.50
19281;DHT22;9774;52.034;5.342;2023-09-19T01:10:00;19.40;65.70
19281;DHT22;9774;52.034;5.342;2023-09-19T01:12:35;19.40;65.80
19281;DHT22;9774;52.034;5.342;2023-09-19T01:15:15;19.40;65.90
19281;DHT22;9774;52.034;5.342;2023-09-19T01:17:52;19.40;65.80
19281;DHT22;9774;52.034;5.342;2023-09-19T01:20:29;19.40;65.90
19281;DHT22;9774;52.034;5.342;2023-09-19T01:23:11;19.40;66.00
19281;DHT22;9774;52.034;5.342;2023-09-19T01:26:05;19.50;66.00
19281;DHT22;9774;52.034;5.342;2023-09-19T01:28:51;19.40;66.80
19281;DHT22;9774;52.034;5.342;2023-09-19T01:31:23;19.50;66.30
19281;DHT22;9774;52.034;5.342;2023-09-19T01:33:57;19.50;66.00
19281;DHT22;9774;52.034;5.342;2023-09-19T01:36:30;19.50;65.90
19281;DHT22;9774;52.034;5.342;2023-09-19T01:39:02;19.50;66.00
19281;DHT22;9774;52.034;5.342;2023-09-19T01:41:56;19.50;65.80
19281;DHT22;9774;52.034;5.342;2023-09-19T01:44:36;19.50;66.10
19281;DHT22;9774;52.034;5.342;2023-09-19T01:47:18;19.50;65.90
19281;DHT22;9774;52.034;5.342;2023-09-19T01:49:56;19.50;65.90
19281;DHT22;9774;52.034;5.342;2023-09-19T01:52:31;19.40;65.80
19281;DHT22;9774;52.034;5.342;2023-09-19T01:55:09;19.40;65.70
19281;DHT22;9774;52.034;5.342;2023-09-19T01:57:43;19.40;65.70
19281;DHT22;9774;52.034;5.342;2023-09-19T02:00:18;19.40;65.80
19281;DHT22;9774;52.034;5.342;2023-09-19T02:02:50;19.40;65.70
19281;DHT22;9774;52.034;5.342;2023-09-19T02:05:25;19.30;65.60
19281;DHT22;9774;52.034;5.342;2023-09-19T02:07:53;19.30;65.80
19281;DHT22;9774;52.034;5.342;2023-09-19T02:10:21;19.40;65.70
19281;DHT22;9774;52.034;5.342;2023-09-19T02:12:50;19.30;65.40
19281;DHT22;9774;52.034;5.342;2023-09-19T02:15:17;19.30;65.40
19281;DHT22;9774;52.034;5.342;2023-09-19T02:17:44;19.30;65.30
19281;DHT22;9774;52.034;5.342;2023-09-19T02:20:13;19.30;65.30
19281;DHT22;9774;52.034;5.342;2023-09-19T02:22:42;19.30;65.20
19281;DHT22;9774;52.034;5.342;2023-09-19T02:25:09;19.20;65.00
19281;DHT22;9774;52.034;5.342;2023-09-19T02:27:36;19.20;65.00
19281;DHT22;9774;52.034;5.342;2023-09-19T02:30:06;19.20;64.90
19281;DHT22;9774;52.034;5.342;2023-09-19T02:32:33;19.10;64.80
19281;DHT22;9774;52.034;5.342;2023-09-19T02:35:06;19.10;64.80
19281;DHT22;9774;52.034;5.342;2023-09-19T02:37:37;19.10;64.80
19281;DHT22;9774;52.034;5.342;2023-09-19T02:40:05;19.10;64.80
19281;DHT22;9774;52.034;5.342;2023-09-19T02:42:44;19.00;64.90
19281;DHT22;9774;52.034;5.342;2023-09-19T02:45:15;19.00;64.70
19281;DHT22;9774;52.034;5.342;2023-09-19T02:47:44;18.90;64.70
19281;DHT22;9774;52.034;5.342;2023-09-19T02:50:11;18.90;64.70
19281;DHT22;9774;52.034;5.342;2023-09-19T02:52:41;18.90;64.60
19281;DHT22;9774;52.034;5.342;2023-09-19T02:55:10;18.90;64.60
19281;DHT22;9774;52.034;5.342;2023-09-19T02:57:38;18.80;65.20
19281;DHT22;9774;52.034;5.342;2023-09-19T03:00:07;18.80;64.50
19281;DHT22;9774;52.034;5.342;2023-09-19T03:02:36;18.70;64.40
19281;DHT22;9774;52.034;5.342;2023-09-19T03:05:04;18.70;64.40
19281;DHT22;9774;52.034;5.342;2023-09-19T03:07:32;18.60;64.30
19281;DHT22;9774;52.034;5.342;2023-09-19T03:10:01;18.60;64.40
19281;DHT22;9774;52.034;5.342;2023-09-19T03:12:28;18.60;64.40
19281;DHT22;9774;52.034;5.342;2023-09-19T03:14:55;18.50;64.20
19281;DHT22;9774;52.034;5.342;2023-09-19T03:17:22;18.50;64.20
19281;DHT22;9774;52.034;5.342;2023-09-19T03:19:49;18.50;64.20
19281;DHT22;9774;52.034;5.342;2023-09-19T03:22:16;18.40;64.30
19281;DHT22;9774;52.034;5.342;2023-09-19T03:24:44;18.40;64.20
19281;DHT22;9774;52.034;5.342;2023-09-19T03:27:13;18.40;64.00
19281;DHT22;9774;52.034;5.342;2023-09-19T03:29:41;18.30;63.90
19281;DHT22;9774;52.034;5.342;2023-09-19T03:32:08;18.30;64.00
19281;DHT22;9774;52.034;5.342;2023-09-19T03:34:36;18.30;64.10
19281;DHT22;9774;52.034;5.342;2023-09-19T03:37:08;18.20;63.90
19281;DHT22;9774;52.034;5.342;2023-09-19T03:39:35;18.20;63.90
19281;DHT22;9774;52.034;5.342;2023-09-19T03:42:02;18.20;63.90
19281;DHT22;9774;52.034;5.342;2023-09-19T03:44:32;18.10;63.80
19281;DHT22;9774;52.034;5.342;2023-09-19T03:46:59;18.10;63.80
19281;DHT22;9774;52.034;5.342;2023-09-19T03:49:25;18.00;63.70
19281;DHT22;9774;52.034;5.342;2023-09-19T03:51:52;18.00;63.60
19281;DHT22;9774;52.034;5.342;2023-09-19T03:54:20;18.00;63.70
19281;DHT22;9774;52.034;5.342;2023-09-19T03:56:47;18.00;63.60
19281;DHT22;9774;52.034;5.342;2023-09-19T03:59:13;17.90;63.60
19281;DHT22;9774;52.034;5.342;2023-09-19T04:01:42;17.90;63.70
19281;DHT22;9774;52.034;5.342;2023-09-19T04:04:09;17.90;63.60
19281;DHT22;9774;52.034;5.342;2023-09-19T04:06:36;17.90;63.60
19281;DHT22;9774;52.034;5.342;2023-09-19T04:09:04;17.80;63.70
19281;DHT22;9774;52.034;5.342;2023-09-19T04:11:32;17.80;63.70
19281;DHT22;9774;52.034;5.342;2023-09-19T04:14:02;17.80;63.80
19281;DHT22;9774;52.034;5.342;2023-09-19T04:16:29;17.80;63.60
19281;DHT22;9774;52.034;5.342;2023-09-19T04:18:58;17.80;63.60
19281;DHT22;9774;52.034;5.342;2023-09-19T04:21:25;17.70;63.50
19281;DHT22;9774;52.034;5.342;2023-09-19T04:23:53;17.70;63.60
19281;DHT22;9774;52.034;5.342;2023-09-19T04:26:20;17.70;63.40
19281;DHT22;9774;52.034;5.342;2023-09-19T04:28:47;17.70;63.50
19281;DHT22;9774;52.034;5.342;2023-09-19T04:31:14;17.70;63.60
19281;DHT22;9774;52.034;5.342;2023-09-19T04:33:42;17.70;63.50
19281;DHT22;9774;52.034;5.342;2023-09-19T04:36:11;17.70;63.60
19281;DHT22;9774;52.034;5.342;2023-09-19T04:38:38;17.70;63.60
19281;DHT22;9774;52.034;5.342;2023-09-19T04:41:06;17.60;63.70
19281;DHT22;9774;52.034;5.342;2023-09-19T04:43:33;17.70;63.90
19281;DHT22;9774;52.034;5.342;2023-09-19T04:46:00;17.70;63.80
19281;DHT22;9774;52.034;5.342;2023-09-19T04:48:28;17.70;63.80
19281;DHT22;9774;52.034;5.342;2023-09-19T04:50:55;17.70;63.90
19281;DHT22;9774;52.034;5.342;2023-09-19T04:53:24;17.70;63.80
19281;DHT22;9774;52.034;5.342;2023-09-19T04:55:51;17.70;63.90
19281;DHT22;9774;52.034;5.342;2023-09-19T04:58:21;17.70;63.90
19281;DHT22;9774;52.034;5.342;2023-09-19T05:00:48;17.70;63.80
19281;DHT22;9774;52.034;5.342;2023-09-19T05:03:17;17.70;63.60
19281;DHT22;9774;52.034;5.342;2023-09-19T05:05:45;17.70;63.60
19281;DHT22;9774;52.034;5.342;2023-09-19T05:08:12;17.70;63.80
19281;DHT22;9774;52.034;5.342;2023-09-19T05:10:41;17.70;63.70
19281;DHT22;9774;52.034;5.342;2023-09-19T05:13:08;17.70;63.70
19281;DHT22;9774;52.034;5.342;2023-09-19T05:15:35;17.70;63.70
19281;DHT22;9774;52.034;5.342;2023-09-19T05:18:03;17.70;63.60
19281;DHT22;9774;52.034;5.342;2023-09-19T05:20:32;17.60;63.60
19281;DHT22;9774;52.034;5.342;2023-09-19T05:23:03;17.60;63.60
19281;DHT22;9774;52.034;5.342;2023-09-19T05:25:34;17.60;63.70
19281;DHT22;9774;52.034;5.342;2023-09-19T05:28:05;17.60;63.80
19281;DHT22;9774;52.034;5.342;2023-09-19T05:30:33;17.60;63.80
19281;DHT22;9774;52.034;5.342;2023-09-19T05:33:01;17.60;63.80
19281;DHT22;9774;52.034;5.342;2023-09-19T05:35:30;17.60;63.80
19281;DHT22;9774;52.034;5.342;2023-09-19T05:37:58;17.60;63.80
19281;DHT22;9774;52.034;5.342;2023-09-19T05:40:25;17.60;63.90
19281;DHT22;9774;52.034;5.342;2023-09-19T05:42:53;17.60;63.90
19281;DHT22;9774;52.034;5.342;2023-09-19T05:45:21;17.60;63.90
19281;DHT22;9774;52.034;5.342;2023-09-19T05:47:48;17.60;63.90
19281;DHT22;9774;52.034;5.342;2023-09-19T05:50:16;17.60;63.90
19281;DHT22;9774;52.034;5.342;2023-09-19T05:52:51;17.70;64.00
19281;DHT22;9774;52.034;5.342;2023-09-19T05:55:18;17.70;64.10
19281;DHT22;9774;52.034;5.342;2023-09-19T05:57:49;17.70;64.10
19281;DHT22;9774;52.034;5.342;2023-09-19T06:00:17;17.70;64.10
19281;DHT22;9774;52.034;5.342;2023-09-19T06:02:50;17.70;64.10
19281;DHT22;9774;52.034;5.342;2023-09-19T06:05:19;17.70;64.10
19281;DHT22;9774;52.034;5.342;2023-09-19T06:07:47;17.70;64.00
19281;DHT22;9774;52.034;5.342;2023-09-19T06:10:14;17.70;64.10
19281;DHT22;9774;52.034;5.342;2023-09-19T06:12:43;17.80;64.10
19281;DHT22;9774;52.034;5.342;2023-09-19T06:15:11;17.80;64.10
19281;DHT22;9774;52.034;5.342;2023-09-19T06:17:41;17.80;64.20
19281;DHT22;9774;52.034;5.342;2023-09-19T06:20:10;17.80;64.20
19281;DHT22;9774;52.034;5.342;2023-09-19T06:22:40;17.80;64.30
19281;DHT22;9774;52.034;5.342;2023-09-19T06:25:09;17.80;64.30
19281;DHT22;9774;52.034;5.342;2023-09-19T06:27:38;17.80;64.30
19281;DHT22;9774;52.034;5.342;2023-09-19T06:30:07;17.80;64.30
19281;DHT22;9774;52.034;5.342;2023-09-19T06:32:37;17.90;64.50
19281;DHT22;9774;52.034;5.342;2023-09-19T06:35:04;17.90;64.50
19281;DHT22;9774;52.034;5.342;2023-09-19T06:37:35;17.90;64.50
19281;DHT22;9774;52.034;5.342;2023-09-19T06:40:06;17.90;64.60
19281;DHT22;9774;52.034;5.342;2023-09-19T06:42:39;18.00;64.70
19281;DHT22;9774;52.034;5.342;2023-09-19T06:45:08;18.00;64.80
19281;DHT22;9774;52.034;5.342;2023-09-19T06:47:37;18.10;64.80
19281;DHT22;9774;52.034;5.342;2023-09-19T06:50:04;18.10;64.90
19281;DHT22;9774;52.034;5.342;2023-09-19T06:52:40;18.10;64.90
19281;DHT22;9774;52.034;5.342;2023-09-19T06:55:08;18.20;65.00
19281;DHT22;9774;52.034;5.342;2023-09-19T06:57:37;18.20;65.00
19281;DHT22;9774;52.034;5.342;2023-09-19T07:00:07;18.20;65.10
19281;DHT22;9774;52.034;5.342;2023-09-19T07:02:40;18.30;65.80
19281;DHT22;9774;52.034;5.342;2023-09-19T07:05:08;18.30;65.10
19281;DHT22;9774;52.034;5.342;2023-09-19T07:07:35;18.30;65.10
19281;DHT22;9774;52.034;5.342;2023-09-19T07:10:04;18.40;65.10
19281;DHT22;9774;52.034;5.342;2023-09-19T07:12:33;18.50;65.10
19281;DHT22;9774;52.034;5.342;2023-09-19T07:15:00;18.50;65.10
19281;DHT22;9774;52.034;5.342;2023-09-19T07:17:28;18.50;65.10
19281;DHT22;9774;52.034;5.342;2023-09-19T07:19:55;18.60;65.10
19281;DHT22;9774;52.034;5.342;2023-09-19T07:22:23;18.60;65.10
19281;DHT22;9774;52.034;5.342;2023-09-19T07:24:50;18.70;65.10
19281;DHT22;9774;52.034;5.342;2023-09-19T07:27:18;18.70;65.10
19281;DHT22;9774;52.034;5.342;2023-09-19T07:29:45;18.80;65.00
19281;DHT22;9774;52.034;5.342;2023-09-19T07:32:12;18.80;65.00
19281;DHT22;9774;52.034;5.342;2023-09-19T07:34:39;18.90;65.10
19281;DHT22;9774;52.034;5.342;2023-09-19T07:37:06;18.90;64.90
19281;DHT22;9774;52.034;5.342;2023-09-19T07:39:35;19.00;64.80
19281;DHT22;9774;52.034;5.342;2023-09-19T07:42:02;19.00;64.80
19281;DHT22;9774;52.034;5.342;2023-09-19T07:44:30;19.10;64.80
19281;DHT22;9774;52.034;5.342;2023-09-19T07:46:57;19.10;64.70
19281;DHT22;9774;52.034;5.342;2023-09-19T07:49:24;19.20;64.80
19281;DHT22;9774;52.034;5.342;2023-09-19T07:51:51;19.20;64.90
19281;DHT22;9774;52.034;5.342;2023-09-19T07:54:19;19.30;64.90
19281;DHT22;9774;52.034;5.342;2023-09-19T07:56:47;19.30;64.80
19281;DHT22;9774;52.034;5.342;2023-09-19T07:59:14;19.40;64.70
19281;DHT22;9774;52.034;5.342;2023-09-19T08:01:43;19.40;64.60
19281;DHT22;9774;52.034;5.342;2023-09-19T08:04:09;19.50;64.70
19281;DHT22;9774;52.034;5.342;2023-09-19T08:06:36;19.50;64.70
19281;DHT22;9774;52.034;5.342;2023-09-19T08:09:04;19.50;64.60
19281;DHT22;9774;52.034;5.342;2023-09-19T08:11:33;19.60;64.50
19281;DHT22;9774;52.034;5.342;2023-09-19T08:14:01;19.70;64.50
19281;DHT22;9774;52.034;5.342;2023-09-19T08:16:28;19.70;65.20
19281;DHT22;9774;52.034;5.342;2023-09-19T08:18:56;19.80;64.40
19281;DHT22;9774;52.034;5.342;2023-09-19T08:21:23;19.80;64.50
19281;DHT22;9774;52.034;5.342;2023-09-19T08:23:51;19.90;64.50
19281;DHT22;9774;52.034;5.342;2023-09-19T08:26:19;19.90;64.60
19281;DHT22;9774;52.034;5.342;2023-09-19T08:28:47;20.00;64.60
19281;DHT22;9774;52.034;5.342;2023-09-19T08:31:14;20.10;64.40
19281;DHT22;9774;52.034;5.342;2023-09-19T08:33:43;20.10;64.30
19281;DHT22;9774;52.034;5.342;2023-09-19T08:36:17;20.20;64.20
19281;DHT22;9774;52.034;5.342;2023-09-19T08:38:44;20.20;64.10
19281;DHT22;9774;52.034;5.342;2023-09-19T08:41:11;20.20;63.90
19281;DHT22;9774;52.034;5.342;2023-09-19T08:43:38;20.30;63.90
19281;DHT22;9774;52.034;5.342;2023-09-19T08:46:09;20.30;63.90
19281;DHT22;9774;52.034;5.342;2023-09-19T08:48:42;20.30;63.60
19281;DHT22;9774;52.034;5.342;2023-09-19T08:51:21;20.40;63.50
19281;DHT22;9774;52.034;5.342;2023-09-19T08:54:01;20.40;63.40
19281;DHT22;9774;52.034;5.342;2023-09-19T08:56:33;20.40;63.30
19281;DHT22;9774;52.034;5.342;2023-09-19T08:59:03;20.50;63.50
19281;DHT22;9774;52.034;5.342;2023-09-19T09:01:33;20.50;63.40
19281;DHT22;9774;52.034;5.342;2023-09-19T09:04:03;20.60;63.50
19281;DHT22;9774;52.034;5.342;2023-09-19T09:06:36;20.70;63.50
19281;DHT22;9774;52.034;5.342;2023-09-19T09:09:05;20.70;63.60
19281;DHT22;9774;52.034;5.342;2023-09-19T09:11:33;20.80;63.50
19281;DHT22;9774;52.034;5.342;2023-09-19T09:14:00;20.80;63.20
19281;DHT22;9774;52.034;5.342;2023-09-19T09:16:29;20.90;63.00
19281;DHT22;9774;52.034;5.342;2023-09-19T09:18:57;21.00;62.60
19281;DHT22;9774;52.034;5.342;2023-09-19T09:21:25;21.00;62.40
19281;DHT22;9774;52.034;5.342;2023-09-19T09:23:54;21.00;62.40
19281;DHT22;9774;52.034;5.342;2023-09-19T09:26:41;21.10;62.30
19281;DHT22;9774;52.034;5.342;2023-09-19T09:29:09;21.10;61.60
19281;DHT22;9774;52.034;5.342;2023-09-19T09:31:36;21.10;61.90
19281;DHT22;9774;52.034;5.342;2023-09-19T09:34:03;21.20;61.90
19281;DHT22;9774;52.034;5.342;2023-09-19T09:36:34;21.20;61.80
19281;DHT22;9774;52.034;5.342;2023-09-19T09:39:04;21.20;61.70
19281;DHT22;9774;52.034;5.342;2023-09-19T09:41:44;21.30;61.90
19281;DHT22;9774;52.034;5.342;2023-09-19T09:44:16;21.30;61.90
19281;DHT22;9774;52.034;5.342;2023-09-19T09:46:45;21.40;62.00
19281;DHT22;9774;52.034;5.342;2023-09-19T09:49:30;21.50;61.80
19281;DHT22;9774;52.034;5.342;2023-09-19T09:52:00;21.50;61.70
19281;DHT22;9774;52.034;5.342;2023-09-19T09:54:34;21.60;61.70
19281;DHT22;9774;52.034;5.342;2023-09-19T09:57:04;21.70;61.30
19281;DHT22;9774;52.034;5.342;2023-09-19T09:59:48;21.80;61.70
19281;DHT22;9774;52.034;5.342;2023-09-19T10:02:17;21.80;61.90
19281;DHT22;9774;52.034;5.342;2023-09-19T10:04:50;21.90;61.20
19281;DHT22;9774;52.034;5.342;2023-09-19T10:07:35;22.00;61.40
19281;DHT22;9774;52.034;5.342;2023-09-19T10:10:09;22.10;61.20
19281;DHT22;9774;52.034;5.342;2023-09-19T10:12:43;22.20;61.00
19281;DHT22;9774;52.034;5.342;2023-09-19T10:15:15;22.30;60.90
19281;DHT22;9774;52.034;5.342;2023-09-19T10:17:46;22.40;60.30
19281;DHT22;9774;52.034;5.342;2023-09-19T10:20:15;22.40;60.10
19281;DHT22;9774;52.034;5.342;2023-09-19T10:23:05;22.50;60.60
19281;DHT22;9774;52.034;5.342;2023-09-19T10:25:41;22.50;59.50
19281;DHT22;9774;52.034;5.342;2023-09-19T10:28:12;22.40;59.50
19281;DHT22;9774;52.034;5.342;2023-09-19T10:30:42;22.50;59.50
19281;DHT22;9774;52.034;5.342;2023-09-19T10:33:11;22.50;59.50
19281;DHT22;9774;52.034;5.342;2023-09-19T10:35:40;22.40;59.50
19281;DHT22;9774;52.034;5.342;2023-09-19T10:38:10;22.40;59.50
19281;DHT22;9774;52.034;5.342;2023-09-19T10:40:40;22.50;59.60
19281;DHT22;9774;52.034;5.342;2023-09-19T10:43:13;22.50;59.20
19281;DHT22;9774;52.034;5.342;2023-09-19T10:45:45;22.50;59.30
19281;DHT22;9774;52.034;5.342;2023-09-19T10:48:15;22.50;59.00
19281;DHT22;9774;52.034;5.342;2023-09-19T10:50:48;22.60;59.10
19281;DHT22;9774;52.034;5.342;2023-09-19T10:53:17;22.60;59.10
19281;DHT22;9774;52.034;5.342;2023-09-19T10:55:57;22.60;58.80
19281;DHT22;9774;52.034;5.342;2023-09-19T10:58:27;22.60;58.60
19281;DHT22;9774;52.034;5.342;2023-09-19T11:00:56;22.60;58.90
19281;DHT22;9774;52.034;5.342;2023-09-19T11:03:31;22.60;58.80
19281;DHT22;9774;52.034;5.342;2023-09-19T11:06:03;22.60;58.80
19281;DHT22;9774;52.034;5.342;2023-09-19T11:09:08;22.60;59.00
19281;DHT22;9774;52.034;5.342;2023-09-19T11:11:49;22.70;58.50
19281;DHT22;9774;52.034;5.342;2023-09-19T11:14:37;22.70;59.10
19281;DHT22;9774;52.034;5.342;2023-09-19T11:17:34;22.80;58.80
19281;DHT22;9774;52.034;5.342;2023-09-19T11:20:23;22.80;58.70
19281;DHT22;9774;52.034;5.342;2023-09-19T11:23:20;22.90;58.40
19281;DHT22;9774;52.034;5.342;2023-09-19T11:25:52;22.90;58.60
19281;DHT22;9774;52.034;5.342;2023-09-19T11:28:36;23.00;58.80
19281;DHT22;9774;52.034;5.342;2023-09-19T11:34:40;23.10;58.20
19281;DHT22;9774;52.034;5.342;2023-09-19T11:40:36;23.10;57.70
19281;DHT22;9774;52.034;5.342;2023-09-19T11:43:30;23.10;58.00
19281;DHT22;9774;52.034;5.342;2023-09-19T11:46:06;23.10;57.60
19281;DHT22;9774;52.034;5.342;2023-09-19T11:48:35;23.20;57.80
19281;DHT22;9774;52.034;5.342;2023-09-19T11:51:15;23.20;57.90
19281;DHT22;9774;52.034;5.342;2023-09-19T11:53:48;23.20;57.60
19281;DHT22;9774;52.034;5.342;2023-09-19T11:56:18;23.30;58.10
19281;DHT22;9774;52.034;5.342;2023-09-19T11:58:50;23.30;57.70
19281;DHT22;9774;52.034;5.342;2023-09-19T12:01:28;23.40;57.50
19281;DHT22;9774;52.034;5.342;2023-09-19T12:03:58;23.40;57.10
19281;DHT22;9774;52.034;5.342;2023-09-19T12:06:28;23.40;57.10
19281;DHT22;9774;52.034;5.342;2023-09-19T12:08:56;23.40;57.00
19281;DHT22;9774;52.034;5.342;2023-09-19T12:11:30;23.40;56.50
19281;DHT22;9774;52.034;5.342;2023-09-19T12:13:59;23.40;56.40
19281;DHT22;9774;52.034;5.342;2023-09-19T12:16:28;23.40;56.60
19281;DHT22;9774;52.034;5.342;2023-09-19T12:18:56;23.40;56.30
19281;DHT22;9774;52.034;5.342;2023-09-19T12:21:26;23.30;56.20
19281;DHT22;9774;52.034;5.342;2023-09-19T12:24:04;23.30;56.40
19281;DHT22;9774;52.034;5.342;2023-09-19T12:26:39;23.30;56.20
19281;DHT22;9774;52.034;5.342;2023-09-19T12:29:16;23.20;56.30
19281;DHT22;9774;52.034;5.342;2023-09-19T12:31:53;23.20;56.30
19281;DHT22;9774;52.034;5.342;2023-09-19T12:34:24;23.20;56.30
19281;DHT22;9774;52.034;5.342;2023-09-19T12:37:09;23.10;56.50
19281;DHT22;9774;52.034;5.342;2023-09-19T12:39:47;23.10;56.50
19281;DHT22;9774;52.034;5.342;2023-09-19T12:42:18;23.10;56.70
19281;DHT22;9774;52.034;5.342;2023-09-19T12:44:48;23.10;56.40
19281;DHT22;9774;52.034;5.342;2023-09-19T12:47:18;23.00;56.40
19281;DHT22;9774;52.034;5.342;2023-09-19T12:50:08;23.00;56.40
19281;DHT22;9774;52.034;5.342;2023-09-19T12:52:46;23.00;56.20
19281;DHT22;9774;52.034;5.342;2023-09-19T12:55:25;22.90;56.70
19281;DHT22;9774;52.034;5.342;2023-09-19T12:58:02;22.90;56.50
19281;DHT22;9774;52.034;5.342;2023-09-19T13:00:37;22.90;56.60
19281;DHT22;9774;52.034;5.342;2023-09-19T13:03:15;22.90;56.80
19281;DHT22;9774;52.034;5.342;2023-09-19T13:05:52;22.80;56.90
19281;DHT22;9774;52.034;5.342;2023-09-19T13:08:26;22.80;56.80
19281;DHT22;9774;52.034;5.342;2023-09-19T13:11:09;22.80;56.80
19281;DHT22;9774;52.034;5.342;2023-09-19T13:13:43;22.80;56.90
19281;DHT22;9774;52.034;5.342;2023-09-19T13:16:14;22.80;57.10
19281;DHT22;9774;52.034;5.342;2023-09-19T13:18:47;22.80;57.20
19281;DHT22;9774;52.034;5.342;2023-09-19T13:21:27;22.80;57.10
19281;DHT22;9774;52.034;5.342;2023-09-19T13:24:19;22.80;56.90
19281;DHT22;9774;52.034;5.342;2023-09-19T13:26:48;22.80;57.10
19281;DHT22;9774;52.034;5.342;2023-09-19T13:29:15;22.70;57.10
19281;DHT22;9774;52.034;5.342;2023-09-19T13:31:46;22.80;57.20
19281;DHT22;9774;52.034;5.342;2023-09-19T13:34:15;22.70;57.00
19281;DHT22;9774;52.034;5.342;2023-09-19T13:36:43;22.70;57.20
19281;DHT22;9774;52.034;5.342;2023-09-19T13:39:10;22.70;57.30
19281;DHT22;9774;52.034;5.342;2023-09-19T13:41:38;22.70;57.40
19281;DHT22;9774;52.034;5.342;2023-09-19T13:44:06;22.70;57.40
19281;DHT22;9774;52.034;5.342;2023-09-19T13:46:36;22.80;57.60
19281;DHT22;9774;52.034;5.342;2023-09-19T13:49:03;22.80;57.50
19281;DHT22;9774;52.034;5.342;2023-09-19T13:51:32;22.90;57.50
19281;DHT22;9774;52.034;5.342;2023-09-19T13:53:59;22.90;57.40
19281;DHT22;9774;52.034;5.342;2023-09-19T13:56:26;22.90;57.30
19281;DHT22;9774;52.034;5.342;2023-09-19T13:58:54;23.00;57.40
19281;DHT22;9774;52.034;5.342;2023-09-19T14:01:21;23.00;57.10
19281;DHT22;9774;52.034;5.342;2023-09-19T14:03:48;23.00;57.00
19281;DHT22;9774;52.034;5.342;2023-09-19T14:06:16;23.00;57.10
19281;DHT22;9774;52.034;5.342;2023-09-19T14:08:45;23.00;57.20
19281;DHT22;9774;52.034;5.342;2023-09-19T14:11:14;23.00;57.00
19281;DHT22;9774;52.034;5.342;2023-09-19T14:13:42;23.00;57.00
19281;DHT22;9774;52.034;5.342;2023-09-19T14:16:12;23.00;57.00
19281;DHT22;9774;52.034;5.342;2023-09-19T14:18:39;23.00;57.10
19281;DHT22;9774;52.034;5.342;2023-09-19T14:21:07;22.90;56.90
19281;DHT22;9774;52.034;5.342;2023-09-19T14:23:36;23.00;57.60
19281;DHT22;9774;52.034;5.342;2023-09-19T14:26:05;22.90;56.90
19281;DHT22;9774;52.034;5.342;2023-09-19T14:28:32;22.90;56.80
19281;DHT22;9774;52.034;5.342;2023-09-19T14:31:04;22.90;56.90
19281;DHT22;9774;52.034;5.342;2023-09-19T14:33:32;22.90;56.90
19281;DHT22;9774;52.034;5.342;2023-09-19T14:36:02;22.90;57.00
19281;DHT22;9774;52.034;5.342;2023-09-19T14:38:32;22.90;56.90
19281;DHT22;9774;52.034;5.342;2023-09-19T14:41:00;22.90;57.00
19281;DHT22;9774;52.034;5.342;2023-09-19T14:43:29;22.90;56.90
19281;DHT22;9774;52.034;5.342;2023-09-19T14:46:02;22.90;56.80
19281;DHT22;9774;52.034;5.342;2023-09-19T14:48:29;22.90;56.70
19281;DHT22;9774;52.034;5.342;2023-09-19T14:51:02;22.90;56.70
19281;DHT22;9774;52.034;5.342;2023-09-19T14:53:29;22.80;56.60
19281;DHT22;9774;52.034;5.342;2023-09-19T14:55:56;22.80;56.60
19281;DHT22;9774;52.034;5.342;2023-09-19T14:58:26;22.80;56.70
19281;DHT22;9774;52.034;5.342;2023-09-19T15:01:03;22.80;56.80
19281;DHT22;9774;52.034;5.342;2023-09-19T15:03:31;22.80;56.50
19281;DHT22;9774;52.034;5.342;2023-09-19T15:05:59;22.80;56.40
19281;DHT22;9774;52.034;5.342;2023-09-19T15:08:27;22.80;56.50
19281;DHT22;9774;52.034;5.342;2023-09-19T15:10:54;22.70;56.60
19281;DHT22;9774;52.034;5.342;2023-09-19T15:13:21;22.70;56.70
19281;DHT22;9774;52.034;5.342;2023-09-19T15:15:49;22.70;56.80
19281;DHT22;9774;52.034;5.342;2023-09-19T15:18:17;22.70;56.80
19281;DHT22;9774;52.034;5.342;2023-09-19T15:20:44;22.70;56.90
19281;DHT22;9774;52.034;5.342;2023-09-19T15:23:12;22.70;57.00
19281;DHT22;9774;52.034;5.342;2023-09-19T15:25:39;22.70;57.00
19281;DHT22;9774;52.034;5.342;2023-09-19T15:28:06;22.70;57.10
19281;DHT22;9774;52.034;5.342;2023-09-19T15:30:37;22.70;57.00
19281;DHT22;9774;52.034;5.342;2023-09-19T15:33:04;22.70;57.00
19281;DHT22;9774;52.034;5.342;2023-09-19T15:35:32;22.60;57.10
19281;DHT22;9774;52.034;5.342;2023-09-19T15:38:02;22.60;57.00
19281;DHT22;9774;52.034;5.342;2023-09-19T15:40:30;22.60;57.10
19281;DHT22;9774;52.034;5.342;2023-09-19T15:42:57;22.60;57.10
19281;DHT22;9774;52.034;5.342;2023-09-19T15:45:24;22.60;57.00
19281;DHT22;9774;52.034;5.342;2023-09-19T15:47:51;22.60;57.10
19281;DHT22;9774;52.034;5.342;2023-09-19T15:50:20;22.60;57.10
19281;DHT22;9774;52.034;5.342;2023-09-19T15:52:53;22.60;57.20
19281;DHT22;9774;52.034;5.342;2023-09-19T15:55:21;22.60;57.10
19281;DHT22;9774;52.034;5.342;2023-09-19T15:57:48;22.60;57.20
19281;DHT22;9774;52.034;5.342;2023-09-19T16:00:15;22.60;57.10
19281;DHT22;9774;52.034;5.342;2023-09-19T16:02:46;22.60;57.10
19281;DHT22;9774;52.034;5.342;2023-09-19T16:05:16;22.60;57.20
19281;DHT22;9774;52.034;5.342;2023-09-19T16:07:43;22.60;57.10
19281;DHT22;9774;52.034;5.342;2023-09-19T16:10:12;22.60;57.20
19281;DHT22;9774;52.034;5.342;2023-09-19T16:12:40;22.50;57.20